sensor_id;sensor_type;location;lat;lon;timestamp;P1;durP1;ratioP1;P2;durP2;ratioP2
45812;SDS011;31519;45.408;10.962;2022-12-07T00:01:43;28.70;;;11.30;;
45812;SDS011;31519;45.408;10.962;2022-12-07T00:04:13;22.65;;;11.35;;
45812;SDS011;31519;45.408;10.962;2022-12-07T00:06:45;18.20;;;10.35;;
45812;SDS011;31519;45.408;10.962;2022-12-07T00:09:18;33.08;;;11.13;;
45812;SDS011;31519;45.408;10.962;2022-12-07T00:11:48;35.85;;;11.50;;
45812;SDS011;31519;45.408;10.962;2022-12-07T00:14:18;78.43;;;12.32;;
45812;SDS011;31519;45.408;10.962;2022-12-07T00:16:49;35.40;;;11.32;;
45812;SDS011;31519;45.408;10.962;2022-12-07T00:19:19;20.65;;;11.10;;
45812;SDS011;31519;45.408;10.962;2022-12-07T00:21:47;23.52;;;11.88;;
45812;SDS011;31519;45.408;10.962;2022-12-07T00:24:15;18.83;;;11.43;;
45812;SDS011;31519;45.408;10.962;2022-12-07T00:26:44;34.58;;;10.85;;
45812;SDS011;31519;45.408;10.962;2022-12-07T00:29:15;18.67;;;10.00;;
45812;SDS011;31519;45.408;10.962;2022-12-07T00:31:46;33.35;;;11.02;;
45812;SDS011;31519;45.408;10.962;2022-12-07T00:34:16;93.63;;;12.30;;
45812;SDS011;31519;45.408;10.962;2022-12-07T00:36:46;68.53;;;12.80;;
45812;SDS011;31519;45.408;10.962;2022-12-07T00:39:16;27.75;;;10.88;;
45812;SDS011;31519;45.408;10.962;2022-12-07T00:41:45;81.50;;;13.05;;
45812;SDS011;31519;45.408;10.962;2022-12-07T00:44:13;43.15;;;12.23;;
45812;SDS011;31519;45.408;10.962;2022-12-07T00:46:41;103.20;;;13.68;;
45812;SDS011;31519;45.408;10.962;2022-12-07T00:49:09;83.68;;;12.35;;
45812;SDS011;31519;45.408;10.962;2022-12-07T00:51:38;50.15;;;11.40;;
45812;SDS011;31519;45.408;10.962;2022-12-07T00:54:06;27.63;;;11.45;;
45812;SDS011;31519;45.408;10.962;2022-12-07T00:56:34;188.93;;;14.85;;
45812;SDS011;31519;45.408;10.962;2022-12-07T00:59:03;166.98;;;15.32;;
45812;SDS011;31519;45.408;10.962;2022-12-07T01:01:35;74.10;;;12.38;;
45812;SDS011;31519;45.408;10.962;2022-12-07T01:04:05;106.05;;;10.20;;
45812;SDS011;31519;45.408;10.962;2022-12-07T01:06:34;140.18;;;14.82;;
45812;SDS011;31519;45.408;10.962;2022-12-07T01:09:02;121.72;;;10.90;;
45812;SDS011;31519;45.408;10.962;2022-12-07T01:11:33;138.77;;;15.25;;
45812;SDS011;31519;45.408;10.962;2022-12-07T01:14:01;138.02;;;11.40;;
45812;SDS011;31519;45.408;10.962;2022-12-07T01:16:31;60.70;;;9.20;;
45812;SDS011;31519;45.408;10.962;2022-12-07T01:19:01;52.22;;;9.40;;
45812;SDS011;31519;45.408;10.962;2022-12-07T01:21:33;33.90;;;9.00;;
45812;SDS011;31519;45.408;10.962;2022-12-07T01:24:04;88.65;;;8.95;;
45812;SDS011;31519;45.408;10.962;2022-12-07T01:26:35;60.47;;;9.35;;
45812;SDS011;31519;45.408;10.962;2022-12-07T01:29:03;133.63;;;10.38;;
45812;SDS011;31519;45.408;10.962;2022-12-07T01:31:33;15.75;;;7.78;;
45812;SDS011;31519;45.408;10.962;2022-12-07T01:34:01;129.98;;;10.43;;
45812;SDS011;31519;45.408;10.962;2022-12-07T01:36:31;34.67;;;8.68;;
45812;SDS011;31519;45.408;10.962;2022-12-07T01:39:02;66.00;;;8.95;;
45812;SDS011;31519;45.408;10.962;2022-12-07T01:41:33;107.72;;;10.05;;
45812;SDS011;31519;45.408;10.962;2022-12-07T01:46:50;143.02;;;11.20;;
45812;SDS011;31519;45.408;10.962;2022-12-07T01:55:03;25.13;;;7.85;;
45812;SDS011;31519;45.408;10.962;2022-12-07T01:57:36;62.28;;;8.38;;
45812;SDS011;31519;45.408;10.962;2022-12-07T02:00:08;94.10;;;8.30;;
45812;SDS011;31519;45.408;10.962;2022-12-07T02:02:54;133.40;;;9.80;;
45812;SDS011;31519;45.408;10.962;2022-12-07T02:05:28;101.32;;;10.05;;
45812;SDS011;31519;45.408;10.962;2022-12-07T02:07:57;106.57;;;9.75;;
45812;SDS011;31519;45.408;10.962;2022-12-07T02:10:27;66.88;;;9.00;;
45812;SDS011;31519;45.408;10.962;2022-12-07T02:25:08;29.33;;;7.95;;
45812;SDS011;31519;45.408;10.962;2022-12-07T02:27:50;34.67;;;8.05;;
45812;SDS011;31519;45.408;10.962;2022-12-07T02:30:31;30.15;;;8.65;;
45812;SDS011;31519;45.408;10.962;2022-12-07T02:38:20;90.75;;;10.07;;
45812;SDS011;31519;45.408;10.962;2022-12-07T02:40:55;49.17;;;9.95;;
45812;SDS011;31519;45.408;10.962;2022-12-07T02:43:34;43.15;;;10.18;;
45812;SDS011;31519;45.408;10.962;2022-12-07T02:46:20;25.60;;;10.52;;
45812;SDS011;31519;45.408;10.962;2022-12-07T02:49:16;58.47;;;10.00;;
45812;SDS011;31519;45.408;10.962;2022-12-07T02:51:45;20.30;;;9.63;;
45812;SDS011;31519;45.408;10.962;2022-12-07T02:54:17;47.63;;;11.35;;
45812;SDS011;31519;45.408;10.962;2022-12-07T02:56:50;95.90;;;11.32;;
45812;SDS011;31519;45.408;10.962;2022-12-07T03:13:30;75.28;;;10.93;;
45812;SDS011;31519;45.408;10.962;2022-12-07T03:18:52;66.45;;;12.43;;
45812;SDS011;31519;45.408;10.962;2022-12-07T03:21:27;134.35;;;13.85;;
45812;SDS011;31519;45.408;10.962;2022-12-07T03:24:04;67.35;;;11.00;;
45812;SDS011;31519;45.408;10.962;2022-12-07T03:26:40;101.55;;;10.20;;
45812;SDS011;31519;45.408;10.962;2022-12-07T03:29:17;200.43;;;17.08;;
45812;SDS011;31519;45.408;10.962;2022-12-07T03:31:55;96.60;;;10.38;;
45812;SDS011;31519;45.408;10.962;2022-12-07T03:37:33;160.73;;;14.20;;
45812;SDS011;31519;45.408;10.962;2022-12-07T03:40:08;124.28;;;11.70;;
45812;SDS011;31519;45.408;10.962;2022-12-07T03:42:59;94.22;;;11.30;;
45812;SDS011;31519;45.408;10.962;2022-12-07T03:45:33;142.98;;;13.13;;
45812;SDS011;31519;45.408;10.962;2022-12-07T03:51:21;213.07;;;16.58;;
45812;SDS011;31519;45.408;10.962;2022-12-07T03:54:37;62.05;;;12.82;;
45812;SDS011;31519;45.408;10.962;2022-12-07T03:56:55;74.85;;;11.43;;
45812;SDS011;31519;45.408;10.962;2022-12-07T03:59:26;33.17;;;12.00;;
45812;SDS011;31519;45.408;10.962;2022-12-07T04:01:57;46.85;;;12.23;;
45812;SDS011;31519;45.408;10.962;2022-12-07T04:04:30;23.77;;;10.60;;
45812;SDS011;31519;45.408;10.962;2022-12-07T04:06:59;38.95;;;11.95;;
45812;SDS011;31519;45.408;10.962;2022-12-07T04:09:27;47.17;;;12.05;;
45812;SDS011;31519;45.408;10.962;2022-12-07T04:11:57;28.73;;;12.18;;
45812;SDS011;31519;45.408;10.962;2022-12-07T04:14:25;32.65;;;10.48;;
45812;SDS011;31519;45.408;10.962;2022-12-07T04:16:54;31.48;;;11.73;;
45812;SDS011;31519;45.408;10.962;2022-12-07T04:19:29;24.83;;;12.27;;
45812;SDS011;31519;45.408;10.962;2022-12-07T04:22:00;35.50;;;10.85;;
45812;SDS011;31519;45.408;10.962;2022-12-07T04:24:30;39.50;;;12.48;;
45812;SDS011;31519;45.408;10.962;2022-12-07T04:27:01;26.35;;;11.77;;
45812;SDS011;31519;45.408;10.962;2022-12-07T04:29:28;23.85;;;11.00;;
45812;SDS011;31519;45.408;10.962;2022-12-07T04:31:58;88.85;;;14.18;;
45812;SDS011;31519;45.408;10.962;2022-12-07T04:34:26;28.95;;;11.13;;
45812;SDS011;31519;45.408;10.962;2022-12-07T04:36:55;74.78;;;12.35;;
45812;SDS011;31519;45.408;10.962;2022-12-07T04:39:27;138.48;;;13.77;;
45812;SDS011;31519;45.408;10.962;2022-12-07T04:41:57;66.80;;;11.13;;
45812;SDS011;31519;45.408;10.962;2022-12-07T04:44:27;154.05;;;12.32;;
45812;SDS011;31519;45.408;10.962;2022-12-07T04:46:58;165.35;;;13.88;;
45812;SDS011;31519;45.408;10.962;2022-12-07T04:49:26;101.10;;;11.65;;
45812;SDS011;31519;45.408;10.962;2022-12-07T04:51:54;134.25;;;12.25;;
45812;SDS011;31519;45.408;10.962;2022-12-07T04:54:22;172.93;;;11.32;;
45812;SDS011;31519;45.408;10.962;2022-12-07T04:56:50;24.75;;;9.65;;
45812;SDS011;31519;45.408;10.962;2022-12-07T04:59:18;26.98;;;10.02;;
45812;SDS011;31519;45.408;10.962;2022-12-07T05:01:47;45.15;;;10.38;;
45812;SDS011;31519;45.408;10.962;2022-12-07T05:04:15;56.13;;;9.10;;
45812;SDS011;31519;45.408;10.962;2022-12-07T05:06:45;67.35;;;10.13;;
45812;SDS011;31519;45.408;10.962;2022-12-07T05:09:13;46.67;;;8.27;;
45812;SDS011;31519;45.408;10.962;2022-12-07T05:11:41;114.72;;;10.23;;
45812;SDS011;31519;45.408;10.962;2022-12-07T05:14:12;23.52;;;7.53;;
45812;SDS011;31519;45.408;10.962;2022-12-07T05:16:43;89.80;;;8.73;;
45812;SDS011;31519;45.408;10.962;2022-12-07T05:19:12;97.63;;;8.57;;
45812;SDS011;31519;45.408;10.962;2022-12-07T05:21:41;29.02;;;7.05;;
45812;SDS011;31519;45.408;10.962;2022-12-07T05:24:10;20.10;;;6.57;;
45812;SDS011;31519;45.408;10.962;2022-12-07T05:26:41;22.88;;;7.95;;
45812;SDS011;31519;45.408;10.962;2022-12-07T05:29:11;12.88;;;6.75;;
45812;SDS011;31519;45.408;10.962;2022-12-07T05:31:40;42.63;;;7.68;;
45812;SDS011;31519;45.408;10.962;2022-12-07T05:34:09;16.45;;;6.85;;
45812;SDS011;31519;45.408;10.962;2022-12-07T05:36:38;23.73;;;6.53;;
45812;SDS011;31519;45.408;10.962;2022-12-07T05:39:07;58.35;;;7.32;;
45812;SDS011;31519;45.408;10.962;2022-12-07T05:41:36;37.70;;;6.57;;
45812;SDS011;31519;45.408;10.962;2022-12-07T05:44:23;27.42;;;6.65;;
45812;SDS011;31519;45.408;10.962;2022-12-07T05:46:51;42.80;;;7.15;;
45812;SDS011;31519;45.408;10.962;2022-12-07T05:49:19;32.60;;;5.57;;
45812;SDS011;31519;45.408;10.962;2022-12-07T05:51:47;42.72;;;7.30;;
45812;SDS011;31519;45.408;10.962;2022-12-07T05:54:15;13.15;;;6.57;;
45812;SDS011;31519;45.408;10.962;2022-12-07T05:56:43;12.32;;;6.43;;
45812;SDS011;31519;45.408;10.962;2022-12-07T05:59:11;26.77;;;6.28;;
45812;SDS011;31519;45.408;10.962;2022-12-07T06:01:52;34.72;;;6.55;;
45812;SDS011;31519;45.408;10.962;2022-12-07T06:04:27;14.82;;;7.13;;
45812;SDS011;31519;45.408;10.962;2022-12-07T06:06:57;16.20;;;6.20;;
45812;SDS011;31519;45.408;10.962;2022-12-07T06:09:26;21.10;;;6.15;;
45812;SDS011;31519;45.408;10.962;2022-12-07T06:11:55;26.75;;;6.28;;
45812;SDS011;31519;45.408;10.962;2022-12-07T06:14:43;9.30;;;5.63;;
45812;SDS011;31519;45.408;10.962;2022-12-07T06:17:11;14.40;;;6.22;;
45812;SDS011;31519;45.408;10.962;2022-12-07T06:19:41;14.70;;;5.65;;
45812;SDS011;31519;45.408;10.962;2022-12-07T06:22:10;22.45;;;5.72;;
45812;SDS011;31519;45.408;10.962;2022-12-07T06:24:39;39.30;;;6.28;;
45812;SDS011;31519;45.408;10.962;2022-12-07T06:27:08;12.73;;;5.18;;
45812;SDS011;31519;45.408;10.962;2022-12-07T06:29:37;76.00;;;7.18;;
45812;SDS011;31519;45.408;10.962;2022-12-07T06:32:05;66.65;;;8.32;;
45812;SDS011;31519;45.408;10.962;2022-12-07T06:34:34;49.78;;;7.88;;
45812;SDS011;31519;45.408;10.962;2022-12-07T06:37:02;18.10;;;6.45;;
45812;SDS011;31519;45.408;10.962;2022-12-07T06:39:31;16.90;;;7.85;;
45812;SDS011;31519;45.408;10.962;2022-12-07T06:41:59;13.52;;;6.60;;
45812;SDS011;31519;45.408;10.962;2022-12-07T06:44:27;11.35;;;5.95;;
45812;SDS011;31519;45.408;10.962;2022-12-07T06:46:55;19.95;;;5.75;;
45812;SDS011;31519;45.408;10.962;2022-12-07T06:49:44;12.55;;;5.45;;
45812;SDS011;31519;45.408;10.962;2022-12-07T06:52:12;15.93;;;5.13;;
45812;SDS011;31519;45.408;10.962;2022-12-07T06:54:40;18.33;;;7.03;;
45812;SDS011;31519;45.408;10.962;2022-12-07T06:57:08;16.50;;;5.10;;
45812;SDS011;31519;45.408;10.962;2022-12-07T06:59:36;10.38;;;4.47;;
45812;SDS011;31519;45.408;10.962;2022-12-07T07:02:04;6.70;;;4.20;;
45812;SDS011;31519;45.408;10.962;2022-12-07T07:04:33;10.60;;;4.70;;
45812;SDS011;31519;45.408;10.962;2022-12-07T07:07:01;7.40;;;4.68;;
45812;SDS011;31519;45.408;10.962;2022-12-07T07:09:29;5.70;;;4.10;;
45812;SDS011;31519;45.408;10.962;2022-12-07T07:11:56;7.93;;;4.20;;
45812;SDS011;31519;45.408;10.962;2022-12-07T07:14:25;7.75;;;4.55;;
45812;SDS011;31519;45.408;10.962;2022-12-07T07:16:53;7.60;;;4.97;;
45812;SDS011;31519;45.408;10.962;2022-12-07T07:19:21;5.60;;;3.95;;
45812;SDS011;31519;45.408;10.962;2022-12-07T07:21:49;5.57;;;3.80;;
45812;SDS011;31519;45.408;10.962;2022-12-07T07:24:18;15.63;;;4.63;;
45812;SDS011;31519;45.408;10.962;2022-12-07T07:26:46;7.15;;;4.03;;
45812;SDS011;31519;45.408;10.962;2022-12-07T07:29:14;4.97;;;3.42;;
45812;SDS011;31519;45.408;10.962;2022-12-07T07:31:42;7.45;;;3.30;;
45812;SDS011;31519;45.408;10.962;2022-12-07T07:34:10;4.28;;;2.90;;
45812;SDS011;31519;45.408;10.962;2022-12-07T07:36:38;4.05;;;3.10;;
45812;SDS011;31519;45.408;10.962;2022-12-07T07:39:07;4.22;;;3.17;;
45812;SDS011;31519;45.408;10.962;2022-12-07T07:41:34;3.85;;;2.85;;
45812;SDS011;31519;45.408;10.962;2022-12-07T07:44:03;6.00;;;2.47;;
45812;SDS011;31519;45.408;10.962;2022-12-07T07:46:31;7.80;;;3.28;;
45812;SDS011;31519;45.408;10.962;2022-12-07T07:49:01;3.42;;;2.72;;
45812;SDS011;31519;45.408;10.962;2022-12-07T07:51:29;7.25;;;3.00;;
45812;SDS011;31519;45.408;10.962;2022-12-07T07:53:57;5.53;;;2.80;;
45812;SDS011;31519;45.408;10.962;2022-12-07T07:56:25;7.90;;;3.60;;
45812;SDS011;31519;45.408;10.962;2022-12-07T07:58:53;6.40;;;4.20;;
45812;SDS011;31519;45.408;10.962;2022-12-07T08:01:21;3.85;;;3.20;;
45812;SDS011;31519;45.408;10.962;2022-12-07T08:03:49;6.93;;;3.70;;
45812;SDS011;31519;45.408;10.962;2022-12-07T08:06:17;7.65;;;3.53;;
45812;SDS011;31519;45.408;10.962;2022-12-07T08:08:45;12.27;;;4.07;;
45812;SDS011;31519;45.408;10.962;2022-12-07T08:11:13;6.05;;;3.90;;
45812;SDS011;31519;45.408;10.962;2022-12-07T08:13:45;9.50;;;4.32;;
45812;SDS011;31519;45.408;10.962;2022-12-07T08:16:14;6.03;;;4.25;;
45812;SDS011;31519;45.408;10.962;2022-12-07T08:18:43;15.80;;;4.57;;
45812;SDS011;31519;45.408;10.962;2022-12-07T08:21:12;9.02;;;4.38;;
45812;SDS011;31519;45.408;10.962;2022-12-07T08:23:42;24.50;;;7.03;;
45812;SDS011;31519;45.408;10.962;2022-12-07T08:26:11;17.30;;;5.03;;
45812;SDS011;31519;45.408;10.962;2022-12-07T08:28:41;8.98;;;4.70;;
45812;SDS011;31519;45.408;10.962;2022-12-07T08:31:12;6.70;;;4.47;;
45812;SDS011;31519;45.408;10.962;2022-12-07T08:33:44;8.63;;;5.03;;
45812;SDS011;31519;45.408;10.962;2022-12-07T08:36:13;9.23;;;3.92;;
45812;SDS011;31519;45.408;10.962;2022-12-07T08:38:43;9.05;;;4.03;;
45812;SDS011;31519;45.408;10.962;2022-12-07T08:41:31;10.95;;;3.75;;
45812;SDS011;31519;45.408;10.962;2022-12-07T08:48:52;12.05;;;6.03;;
45812;SDS011;31519;45.408;10.962;2022-12-07T08:51:26;14.23;;;5.75;;
45812;SDS011;31519;45.408;10.962;2022-12-07T08:53:54;12.05;;;5.38;;
45812;SDS011;31519;45.408;10.962;2022-12-07T08:56:26;21.65;;;6.40;;
45812;SDS011;31519;45.408;10.962;2022-12-07T08:58:55;21.38;;;7.57;;
45812;SDS011;31519;45.408;10.962;2022-12-07T09:01:24;26.33;;;8.93;;
45812;SDS011;31519;45.408;10.962;2022-12-07T09:03:52;17.77;;;8.05;;
45812;SDS011;31519;45.408;10.962;2022-12-07T09:06:20;29.88;;;11.15;;
45812;SDS011;31519;45.408;10.962;2022-12-07T09:08:50;33.42;;;15.18;;
45812;SDS011;31519;45.408;10.962;2022-12-07T09:11:22;32.55;;;11.75;;
45812;SDS011;31519;45.408;10.962;2022-12-07T09:13:55;27.08;;;9.40;;
45812;SDS011;31519;45.408;10.962;2022-12-07T09:16:24;22.60;;;9.75;;
45812;SDS011;31519;45.408;10.962;2022-12-07T09:18:52;27.05;;;11.75;;
45812;SDS011;31519;45.408;10.962;2022-12-07T09:21:21;30.55;;;9.98;;
45812;SDS011;31519;45.408;10.962;2022-12-07T09:23:49;25.35;;;9.32;;
45812;SDS011;31519;45.408;10.962;2022-12-07T09:26:17;23.90;;;9.98;;
45812;SDS011;31519;45.408;10.962;2022-12-07T09:28:45;26.42;;;11.13;;
45812;SDS011;31519;45.408;10.962;2022-12-07T09:31:14;24.60;;;9.18;;
45812;SDS011;31519;45.408;10.962;2022-12-07T09:33:55;24.17;;;9.00;;
45812;SDS011;31519;45.408;10.962;2022-12-07T09:36:25;20.13;;;9.85;;
45812;SDS011;31519;45.408;10.962;2022-12-07T09:38:54;19.25;;;8.23;;
45812;SDS011;31519;45.408;10.962;2022-12-07T09:41:23;20.02;;;9.43;;
45812;SDS011;31519;45.408;10.962;2022-12-07T09:43:55;19.25;;;8.93;;
45812;SDS011;31519;45.408;10.962;2022-12-07T09:46:31;22.13;;;9.50;;
45812;SDS011;31519;45.408;10.962;2022-12-07T09:49:05;26.38;;;11.25;;
45812;SDS011;31519;45.408;10.962;2022-12-07T09:51:38;27.77;;;10.45;;
45812;SDS011;31519;45.408;10.962;2022-12-07T09:54:05;25.85;;;10.90;;
45812;SDS011;31519;45.408;10.962;2022-12-07T09:56:35;28.42;;;11.88;;
45812;SDS011;31519;45.408;10.962;2022-12-07T09:59:03;33.28;;;10.70;;
45812;SDS011;31519;45.408;10.962;2022-12-07T10:01:32;28.13;;;12.05;;
45812;SDS011;31519;45.408;10.962;2022-12-07T10:04:08;29.38;;;11.55;;
45812;SDS011;31519;45.408;10.962;2022-12-07T10:06:41;40.53;;;13.40;;
45812;SDS011;31519;45.408;10.962;2022-12-07T10:09:10;33.97;;;14.18;;
45812;SDS011;31519;45.408;10.962;2022-12-07T10:14:30;28.77;;;13.05;;
45812;SDS011;31519;45.408;10.962;2022-12-07T10:22:59;32.08;;;13.40;;
45812;SDS011;31519;45.408;10.962;2022-12-07T10:25:36;39.22;;;13.35;;
45812;SDS011;31519;45.408;10.962;2022-12-07T10:28:16;40.17;;;13.02;;
45812;SDS011;31519;45.408;10.962;2022-12-07T10:30:56;27.33;;;11.50;;
45812;SDS011;31519;45.408;10.962;2022-12-07T10:33:38;24.17;;;10.00;;
45812;SDS011;31519;45.408;10.962;2022-12-07T10:38:59;28.83;;;10.82;;
45812;SDS011;31519;45.408;10.962;2022-12-07T10:41:57;18.98;;;10.95;;
45812;SDS011;31519;45.408;10.962;2022-12-07T10:44:31;19.10;;;10.18;;
45812;SDS011;31519;45.408;10.962;2022-12-07T10:47:04;18.92;;;8.80;;
45812;SDS011;31519;45.408;10.962;2022-12-07T11:07:37;17.65;;;8.40;;
45812;SDS011;31519;45.408;10.962;2022-12-07T11:10:30;14.63;;;9.13;;
45812;SDS011;31519;45.408;10.962;2022-12-07T11:13:12;16.98;;;9.73;;
45812;SDS011;31519;45.408;10.962;2022-12-07T11:19:15;20.23;;;10.35;;
45812;SDS011;31519;45.408;10.962;2022-12-07T11:27:08;17.88;;;9.00;;
45812;SDS011;31519;45.408;10.962;2022-12-07T11:37:59;15.00;;;8.40;;
45812;SDS011;31519;45.408;10.962;2022-12-07T11:40:36;12.23;;;7.78;;
45812;SDS011;31519;45.408;10.962;2022-12-07T11:43:13;14.73;;;8.32;;
45812;SDS011;31519;45.408;10.962;2022-12-07T11:45:58;13.52;;;8.30;;
45812;SDS011;31519;45.408;10.962;2022-12-07T11:48:35;19.33;;;7.38;;
45812;SDS011;31519;45.408;10.962;2022-12-07T11:51:10;11.82;;;6.68;;
45812;SDS011;31519;45.408;10.962;2022-12-07T11:53:52;11.32;;;7.53;;
45812;SDS011;31519;45.408;10.962;2022-12-07T11:56:27;15.15;;;7.15;;
45812;SDS011;31519;45.408;10.962;2022-12-07T11:58:58;12.50;;;6.55;;
45812;SDS011;31519;45.408;10.962;2022-12-07T12:06:38;10.57;;;8.18;;
45812;SDS011;31519;45.408;10.962;2022-12-07T12:18:08;15.40;;;8.40;;
45812;SDS011;31519;45.408;10.962;2022-12-07T12:23:27;9.55;;;7.18;;
45812;SDS011;31519;45.408;10.962;2022-12-07T12:26:06;12.07;;;7.45;;
45812;SDS011;31519;45.408;10.962;2022-12-07T12:28:40;16.02;;;6.70;;
45812;SDS011;31519;45.408;10.962;2022-12-07T12:33:59;14.00;;;7.07;;
45812;SDS011;31519;45.408;10.962;2022-12-07T12:47:03;10.57;;;6.67;;
45812;SDS011;31519;45.408;10.962;2022-12-07T12:50:11;14.63;;;6.55;;
45812;SDS011;31519;45.408;10.962;2022-12-07T12:52:53;22.40;;;7.43;;
45812;SDS011;31519;45.408;10.962;2022-12-07T12:58:39;10.85;;;6.78;;
45812;SDS011;31519;45.408;10.962;2022-12-07T13:03:59;13.40;;;6.88;;
45812;SDS011;31519;45.408;10.962;2022-12-07T13:08:56;13.82;;;7.60;;
45812;SDS011;31519;45.408;10.962;2022-12-07T13:11:39;15.98;;;7.80;;
45812;SDS011;31519;45.408;10.962;2022-12-07T13:18:04;18.33;;;8.30;;
45812;SDS011;31519;45.408;10.962;2022-12-07T13:20:07;19.98;;;8.05;;
45812;SDS011;31519;45.408;10.962;2022-12-07T13:22:44;20.85;;;8.75;;
45812;SDS011;31519;45.408;10.962;2022-12-07T13:28:32;18.25;;;9.65;;
45812;SDS011;31519;45.408;10.962;2022-12-07T13:30:59;19.20;;;10.07;;
45812;SDS011;31519;45.408;10.962;2022-12-07T13:33:29;17.80;;;9.48;;
45812;SDS011;31519;45.408;10.962;2022-12-07T13:35:57;26.13;;;10.48;;
45812;SDS011;31519;45.408;10.962;2022-12-07T13:38:29;13.95;;;9.35;;
45812;SDS011;31519;45.408;10.962;2022-12-07T13:41:14;23.27;;;9.82;;
45812;SDS011;31519;45.408;10.962;2022-12-07T13:43:53;21.45;;;10.60;;
45812;SDS011;31519;45.408;10.962;2022-12-07T13:49:23;14.73;;;9.63;;
45812;SDS011;31519;45.408;10.962;2022-12-07T13:51:54;20.10;;;9.70;;
45812;SDS011;31519;45.408;10.962;2022-12-07T13:54:44;15.80;;;9.75;;
45812;SDS011;31519;45.408;10.962;2022-12-07T13:57:17;16.20;;;9.57;;
45812;SDS011;31519;45.408;10.962;2022-12-07T13:59:47;26.70;;;11.40;;
45812;SDS011;31519;45.408;10.962;2022-12-07T14:02:29;32.10;;;11.63;;
45812;SDS011;31519;45.408;10.962;2022-12-07T14:12:55;28.73;;;12.25;;
45812;SDS011;31519;45.408;10.962;2022-12-07T14:15:30;33.67;;;11.45;;
45812;SDS011;31519;45.408;10.962;2022-12-07T14:18:02;27.65;;;12.05;;
45812;SDS011;31519;45.408;10.962;2022-12-07T14:23:05;22.67;;;12.30;;
45812;SDS011;31519;45.408;10.962;2022-12-07T14:25:52;21.65;;;12.35;;
45812;SDS011;31519;45.408;10.962;2022-12-07T14:28:29;17.65;;;11.25;;
45812;SDS011;31519;45.408;10.962;2022-12-07T14:30:59;12.52;;;9.40;;
45812;SDS011;31519;45.408;10.962;2022-12-07T14:33:28;21.77;;;10.30;;
45812;SDS011;31519;45.408;10.962;2022-12-07T14:35:57;14.80;;;9.75;;
45812;SDS011;31519;45.408;10.962;2022-12-07T14:38:25;19.50;;;11.05;;
45812;SDS011;31519;45.408;10.962;2022-12-07T14:40:54;14.13;;;10.77;;
45812;SDS011;31519;45.408;10.962;2022-12-07T14:43:43;13.60;;;10.32;;
45812;SDS011;31519;45.408;10.962;2022-12-07T14:46:31;20.65;;;12.00;;
45812;SDS011;31519;45.408;10.962;2022-12-07T14:49:00;21.08;;;12.27;;
45812;SDS011;31519;45.408;10.962;2022-12-07T14:51:49;26.02;;;12.57;;
45812;SDS011;31519;45.408;10.962;2022-12-07T14:54:37;18.52;;;12.13;;
45812;SDS011;31519;45.408;10.962;2022-12-07T14:57:06;28.73;;;13.20;;
45812;SDS011;31519;45.408;10.962;2022-12-07T14:59:37;23.83;;;14.93;;
45812;SDS011;31519;45.408;10.962;2022-12-07T15:02:14;26.85;;;14.18;;
45812;SDS011;31519;45.408;10.962;2022-12-07T15:04:43;19.77;;;14.38;;
45812;SDS011;31519;45.408;10.962;2022-12-07T15:07:18;37.15;;;15.77;;
45812;SDS011;31519;45.408;10.962;2022-12-07T15:09:47;29.65;;;15.20;;
45812;SDS011;31519;45.408;10.962;2022-12-07T15:12:16;22.80;;;15.00;;
45812;SDS011;31519;45.408;10.962;2022-12-07T15:14:44;26.88;;;16.25;;
45812;SDS011;31519;45.408;10.962;2022-12-07T15:17:12;30.83;;;16.23;;
45812;SDS011;31519;45.408;10.962;2022-12-07T15:19:56;27.52;;;16.88;;
45812;SDS011;31519;45.408;10.962;2022-12-07T15:22:24;28.38;;;16.27;;
45812;SDS011;31519;45.408;10.962;2022-12-07T15:24:52;30.25;;;16.20;;
45812;SDS011;31519;45.408;10.962;2022-12-07T15:27:21;33.30;;;16.35;;
45812;SDS011;31519;45.408;10.962;2022-12-07T15:29:49;23.60;;;14.88;;
45812;SDS011;31519;45.408;10.962;2022-12-07T15:32:17;27.65;;;17.45;;
45812;SDS011;31519;45.408;10.962;2022-12-07T15:34:45;26.85;;;16.20;;
45812;SDS011;31519;45.408;10.962;2022-12-07T15:37:13;27.88;;;15.55;;
45812;SDS011;31519;45.408;10.962;2022-12-07T15:39:42;30.92;;;17.48;;
45812;SDS011;31519;45.408;10.962;2022-12-07T15:42:10;33.47;;;17.60;;
45812;SDS011;31519;45.408;10.962;2022-12-07T15:44:38;32.53;;;16.85;;
45812;SDS011;31519;45.408;10.962;2022-12-07T15:47:25;33.92;;;17.42;;
45812;SDS011;31519;45.408;10.962;2022-12-07T15:49:53;44.17;;;17.58;;
45812;SDS011;31519;45.408;10.962;2022-12-07T15:52:25;42.45;;;17.05;;
45812;SDS011;31519;45.408;10.962;2022-12-07T15:54:53;29.50;;;16.85;;
45812;SDS011;31519;45.408;10.962;2022-12-07T15:57:22;45.22;;;19.17;;
45812;SDS011;31519;45.408;10.962;2022-12-07T15:59:52;34.25;;;17.73;;
45812;SDS011;31519;45.408;10.962;2022-12-07T16:02:21;44.88;;;19.45;;
45812;SDS011;31519;45.408;10.962;2022-12-07T16:04:51;35.60;;;17.23;;
45812;SDS011;31519;45.408;10.962;2022-12-07T16:07:20;44.15;;;18.52;;
45812;SDS011;31519;45.408;10.962;2022-12-07T16:09:48;33.85;;;17.85;;
45812;SDS011;31519;45.408;10.962;2022-12-07T16:12:17;34.15;;;18.08;;
45812;SDS011;31519;45.408;10.962;2022-12-07T16:14:45;35.80;;;18.27;;
45812;SDS011;31519;45.408;10.962;2022-12-07T16:17:14;31.13;;;17.73;;
45812;SDS011;31519;45.408;10.962;2022-12-07T16:19:42;36.70;;;17.60;;
45812;SDS011;31519;45.408;10.962;2022-12-07T16:22:10;29.00;;;18.15;;
45812;SDS011;31519;45.408;10.962;2022-12-07T16:24:38;42.35;;;19.20;;
45812;SDS011;31519;45.408;10.962;2022-12-07T16:27:07;43.22;;;19.08;;
45812;SDS011;31519;45.408;10.962;2022-12-07T16:29:35;41.90;;;19.17;;
45812;SDS011;31519;45.408;10.962;2022-12-07T16:32:03;40.08;;;20.38;;
45812;SDS011;31519;45.408;10.962;2022-12-07T16:34:31;44.28;;;23.33;;
45812;SDS011;31519;45.408;10.962;2022-12-07T16:37:00;43.10;;;20.90;;
45812;SDS011;31519;45.408;10.962;2022-12-07T16:39:32;43.42;;;20.38;;
45812;SDS011;31519;45.408;10.962;2022-12-07T16:42:02;39.75;;;21.05;;
45812;SDS011;31519;45.408;10.962;2022-12-07T16:44:30;36.00;;;20.92;;
45812;SDS011;31519;45.408;10.962;2022-12-07T16:47:00;36.67;;;21.42;;
45812;SDS011;31519;45.408;10.962;2022-12-07T16:49:28;39.28;;;21.20;;
45812;SDS011;31519;45.408;10.962;2022-12-07T16:51:57;49.75;;;20.83;;
45812;SDS011;31519;45.408;10.962;2022-12-07T16:54:45;39.78;;;21.48;;
45812;SDS011;31519;45.408;10.962;2022-12-07T16:57:13;59.45;;;30.40;;
45812;SDS011;31519;45.408;10.962;2022-12-07T16:59:49;62.33;;;36.10;;
45812;SDS011;31519;45.408;10.962;2022-12-07T17:02:19;56.05;;;30.25;;
45812;SDS011;31519;45.408;10.962;2022-12-07T17:04:47;42.13;;;23.98;;
45812;SDS011;31519;45.408;10.962;2022-12-07T17:07:16;41.33;;;21.80;;
45812;SDS011;31519;45.408;10.962;2022-12-07T17:09:44;37.40;;;22.65;;
45812;SDS011;31519;45.408;10.962;2022-12-07T17:12:12;48.33;;;22.92;;
45812;SDS011;31519;45.408;10.962;2022-12-07T17:14:41;40.17;;;19.92;;
45812;SDS011;31519;45.408;10.962;2022-12-07T17:17:30;46.72;;;21.65;;
45812;SDS011;31519;45.408;10.962;2022-12-07T17:19:58;40.80;;;23.02;;
45812;SDS011;31519;45.408;10.962;2022-12-07T17:22:26;41.33;;;24.65;;